Time;durP1;ratioP1;P1;durP2;ratioP2;P2;SDS_P1;SDS_P2;PMS_P1;PMS_P2;Temp;Humidity;BMP_temperature;BMP_pressure;BME280_temperature;BME280_humidity;BME280_pressure;Samples;Min_cycle;Max_cycle;Signal;HPM_P1;HPM_P2
2022/12/30 00:01:14;;;;;;;20.35;3.33;;;;;;;6.10;100.00;101052.94;5035811;28;20087;-78
2022/12/30 00:03:40;;;;;;;15.60;2.47;;;;;;;6.14;100.00;101051.59;5005341;28;20048;-77
2022/12/30 00:06:14;;;;;;;19.27;4.03;;;;;;;6.20;100.00;101053.66;5036991;28;20029;-77
2022/12/30 00:08:45;;;;;;;15.23;2.50;;;;;;;6.16;100.00;101052.25;5033273;28;20511;-77
2022/12/30 00:11:23;;;;;;;21.88;2.50;;;;;;;6.15;100.00;101047.84;5031909;28;20029;-77
2022/12/30 00:34:06;;;;;;;12.95;2.70;;;;;;;6.10;100.00;101055.66;5038341;28;20047;-77
2022/12/30 00:36:32;;;;;;;12.18;2.88;;;;;;;6.09;100.00;101056.66;5040635;28;20392;-77
2022/12/30 00:38:58;;;;;;;25.67;3.53;;;;;;;6.05;100.00;101055.28;5034293;28;20025;-77
2022/12/30 00:44:09;;;;;;;13.20;2.50;;;;;;;5.96;100.00;101061.69;5041870;28;20040;-77
2022/12/30 00:46:38;;;;;;;19.65;3.78;;;;;;;6.02;100.00;101061.03;5037337;28;21327;-76
2022/12/30 00:57:17;;;;;;;19.08;3.40;;;;;;;5.98;100.00;101049.63;5035634;28;20049;-78
2022/12/30 00:59:43;;;;;;;12.18;2.35;;;;;;;6.06;100.00;101055.13;5036907;28;20106;-78
2022/12/30 01:02:08;;;;;;;25.65;3.40;;;;;;;6.05;100.00;101058.88;5036917;28;20512;-77
2022/12/30 01:04:34;;;;;;;11.23;2.53;;;;;;;6.14;100.00;101057.88;5040841;28;20040;-77
2022/12/30 01:06:59;;;;;;;12.32;2.72;;;;;;;6.20;100.00;101070.81;5037699;28;20025;-77
2022/12/30 01:09:24;;;;;;;25.38;4.28;;;;;;;6.27;100.00;101069.16;5036593;28;20504;-77
2022/12/30 01:12:07;;;;;;;7.03;2.58;;;;;;;6.25;100.00;101071.16;5039571;28;20397;-77
2022/12/30 01:14:43;;;;;;;19.05;4.70;;;;;;;6.26;100.00;101067.41;5040887;28;20032;-78
2022/12/30 01:17:13;;;;;;;20.08;3.33;;;;;;;6.26;100.00;101074.75;5038586;28;20512;-77
2022/12/30 01:19:39;;;;;;;19.13;3.00;;;;;;;6.28;100.00;101073.56;5039924;28;20524;-77
2022/12/30 01:22:05;;;;;;;21.98;3.25;;;;;;;6.29;100.00;101082.56;5034651;28;20477;-77
2022/12/30 01:24:31;;;;;;;16.13;3.35;;;;;;;6.31;100.00;101077.81;5035337;28;20036;-77
2022/12/30 01:26:56;;;;;;;18.30;3.10;;;;;;;6.24;100.00;101076.78;5033667;28;20033;-77
2022/12/30 01:29:28;;;;;;;23.95;5.50;;;;;;;6.23;100.00;101081.38;5040280;28;20029;-76
2022/12/30 01:32:04;;;;;;;17.85;3.78;;;;;;;6.13;100.00;101085.22;5037952;28;20045;-76
2022/12/30 01:34:31;;;;;;;14.27;4.82;;;;;;;6.16;100.00;101085.75;5021720;28;20038;-76
2022/12/30 01:36:56;;;;;;;18.52;4.10;;;;;;;6.20;100.00;101094.44;5038119;28;20029;-78
2022/12/30 01:39:22;;;;;;;19.80;3.33;;;;;;;6.17;100.00;101102.91;5042333;28;20515;-76
2022/12/30 01:41:48;;;;;;;20.23;4.43;;;;;;;6.15;100.00;101088.63;5039882;28;20049;-76
2022/12/30 01:44:47;;;;;;;22.30;4.30;;;;;;;5.97;100.00;101082.41;5039645;28;20031;-76
2022/12/30 01:47:21;;;;;;;18.70;3.25;;;;;;;6.00;100.00;101080.25;5043097;28;20025;-76
2022/12/30 01:49:51;;;;;;;20.98;4.65;;;;;;;5.95;100.00;101079.00;5037360;28;20111;-77
2022/12/30 01:52:20;;;;;;;20.05;3.75;;;;;;;5.94;100.00;101082.75;5035162;28;20025;-76
2022/12/30 01:54:47;;;;;;;21.50;3.35;;;;;;;5.96;100.00;101094.31;5034761;28;20021;-76
2022/12/30 01:57:13;;;;;;;17.38;3.35;;;;;;;5.90;100.00;101105.81;5038881;28;20026;-77
2022/12/30 01:59:38;;;;;;;21.88;3.38;;;;;;;5.95;100.00;101104.34;5031468;28;20025;-76
2022/12/30 02:02:04;;;;;;;21.25;3.47;;;;;;;5.90;100.00;101092.25;5034500;28;20029;-77
2022/12/30 02:04:30;;;;;;;22.52;4.75;;;;;;;5.89;100.00;101088.69;5034881;28;20051;-76
2022/12/30 02:06:58;;;;;;;20.85;3.17;;;;;;;5.83;100.00;101077.59;5035042;28;20025;-76
2022/12/30 02:09:28;;;;;;;25.38;4.20;;;;;;;5.85;100.00;101091.88;5035178;28;20033;-77
2022/12/30 02:11:55;;;;;;;18.48;3.88;;;;;;;5.87;100.00;101079.81;5036749;28;20029;-76
2022/12/30 02:14:22;;;;;;;20.00;4.07;;;;;;;5.92;100.00;101082.91;5032214;28;20044;-77
2022/12/30 02:17:30;;;;;;;23.70;3.20;;;;;;;5.82;100.00;101078.63;5033226;28;20030;-76
2022/12/30 02:19:56;;;;;;;28.42;3.80;;;;;;;5.94;100.00;101071.88;5034949;28;20049;-76
2022/12/30 02:22:52;;;;;;;32.67;4.32;;;;;;;5.94;100.00;101074.59;5034638;28;20448;-76
2022/12/30 02:25:46;;;;;;;17.13;4.32;;;;;;;6.04;100.00;101065.28;5038252;28;20124;-76
2022/12/30 02:28:17;;;;;;;27.70;4.47;;;;;;;5.99;100.00;101059.50;5034169;28;20057;-76
2022/12/30 02:31:08;;;;;;;22.27;5.63;;;;;;;6.02;100.00;101061.03;5038637;28;20017;-76
2022/12/30 02:34:03;;;;;;;19.20;4.13;;;;;;;5.94;100.00;101053.69;5039595;28;20090;-77
2022/12/30 02:37:02;;;;;;;29.67;4.78;;;;;;;5.88;100.00;101058.94;5050738;28;20025;-76
2022/12/30 02:39:48;;;;;;;20.65;3.95;;;;;;;5.77;100.00;101051.88;5036473;28;20109;-76
2022/12/30 02:45:46;;;;;;;29.92;4.80;;;;;;;5.86;100.00;101050.94;5028128;28;20041;-76
2022/12/30 02:48:20;;;;;;;28.95;5.78;;;;;;;5.80;100.00;101048.00;5038020;28;20036;-76
2022/12/30 02:53:35;;;;;;;22.92;5.18;;;;;;;5.94;100.00;101047.41;5034680;28;20131;-76
2022/12/30 02:56:01;;;;;;;18.88;4.35;;;;;;;5.76;100.00;101044.72;5038330;28;20025;-76
2022/12/30 02:58:30;;;;;;;16.65;4.82;;;;;;;5.75;100.00;101047.59;5036141;28;20029;-76
2022/12/30 03:03:57;;;;;;;22.02;5.38;;;;;;;5.77;100.00;101054.59;5033934;28;20075;-77
2022/12/30 03:06:41;;;;;;;20.67;4.18;;;;;;;5.69;100.00;101048.25;5038635;28;20048;-76
2022/12/30 03:09:32;;;;;;;25.02;4.80;;;;;;;5.68;100.00;101052.84;5035224;28;20048;-76
2022/12/30 03:12:22;;;;;;;22.83;4.20;;;;;;;5.69;100.00;101049.13;5026936;28;20094;-76
2022/12/30 03:15:06;;;;;;;24.15;4.90;;;;;;;5.57;100.00;101044.13;5032829;28;20041;-76
2022/12/30 03:17:34;;;;;;;25.80;4.63;;;;;;;5.68;100.00;101041.13;5037582;28;20022;-76
2022/12/30 03:20:06;;;;;;;21.73;3.75;;;;;;;5.63;100.00;101036.19;5037771;28;20115;-76
2022/12/30 03:28:11;;;;;;;19.77;4.15;;;;;;;5.55;100.00;101027.97;5035025;28;20036;-77
2022/12/30 03:30:44;;;;;;;34.03;4.68;;;;;;;5.51;100.00;101026.59;5038882;28;20562;-76
2022/12/30 03:33:12;;;;;;;21.38;3.80;;;;;;;5.50;100.00;101018.63;5032774;28;20044;-76
2022/12/30 03:35:46;;;;;;;21.00;4.40;;;;;;;5.54;100.00;101015.41;5036683;28;20037;-76
2022/12/30 03:38:14;;;;;;;26.65;4.53;;;;;;;5.50;100.00;101015.91;5033035;28;20038;-76
2022/12/30 03:40:43;;;;;;;9.23;2.95;;;;;;;5.43;100.00;101015.69;5035165;28;20168;-76
2022/12/30 03:43:09;;;;;;;21.90;3.95;;;;;;;5.46;100.00;101017.22;5036116;28;20028;-76
2022/12/30 03:45:35;;;;;;;19.25;3.63;;;;;;;5.47;100.00;101018.94;5036384;28;20021;-76
2022/12/30 03:48:02;;;;;;;20.38;4.28;;;;;;;5.44;100.00;101021.97;5039290;28;20393;-76
2022/12/30 03:50:28;;;;;;;19.60;3.40;;;;;;;5.42;100.00;101007.69;5033808;28;20603;-77
2022/12/30 03:52:53;;;;;;;15.98;3.42;;;;;;;5.41;100.00;101012.28;5046003;28;20029;-76
2022/12/30 03:55:18;;;;;;;16.48;3.88;;;;;;;5.41;100.00;101022.28;5024949;28;20044;-76
2022/12/30 03:57:44;;;;;;;19.52;3.25;;;;;;;5.37;100.00;101026.31;5042270;28;20036;-75
2022/12/30 04:00:11;;;;;;;24.90;3.72;;;;;;;5.32;100.00;101015.09;5039315;28;20056;-75
2022/12/30 04:02:38;;;;;;;22.40;3.72;;;;;;;5.36;100.00;101021.91;5040654;28;20369;-75
2022/12/30 04:05:04;;;;;;;21.65;3.50;;;;;;;5.30;100.00;101006.25;5035858;28;20489;-75
2022/12/30 04:07:30;;;;;;;31.05;3.45;;;;;;;5.34;100.00;101013.91;5040261;28;20040;-75
2022/12/30 04:09:57;;;;;;;22.23;4.22;;;;;;;5.24;100.00;101017.75;5041335;28;20108;-76
2022/12/30 04:12:22;;;;;;;28.27;3.78;;;;;;;5.27;100.00;101009.28;5043666;28;20021;-75
2022/12/30 04:14:48;;;;;;;18.73;3.28;;;;;;;5.22;100.00;101009.78;5036923;28;20140;-76
2022/12/30 04:17:13;;;;;;;25.00;3.83;;;;;;;5.24;100.00;101015.03;5038476;28;20195;-75
2022/12/30 04:19:38;;;;;;;20.35;3.85;;;;;;;5.22;100.00;101017.91;5041932;28;20116;-75
2022/12/30 04:22:04;;;;;;;19.00;3.92;;;;;;;5.09;100.00;101011.19;5041881;28;20025;-75
2022/12/30 04:24:29;;;;;;;16.60;3.55;;;;;;;5.17;100.00;101019.38;5036737;28;20021;-75
2022/12/30 04:26:55;;;;;;;17.52;3.13;;;;;;;5.13;100.00;101010.72;5037962;28;20057;-75
2022/12/30 04:29:20;;;;;;;24.42;5.13;;;;;;;5.04;100.00;100999.97;5038305;28;20056;-75
2022/12/30 04:31:46;;;;;;;14.77;4.05;;;;;;;5.03;100.00;101014.56;5036669;28;20123;-76
2022/12/30 04:34:14;;;;;;;22.80;4.00;;;;;;;5.00;100.00;100999.44;5038287;28;20531;-75
2022/12/30 04:36:40;;;;;;;22.88;3.92;;;;;;;4.97;100.00;101007.03;5036699;28;20397;-75
2022/12/30 04:39:06;;;;;;;11.83;3.23;;;;;;;4.91;100.00;101003.09;5032282;28;20548;-75
2022/12/30 04:41:31;;;;;;;19.42;3.97;;;;;;;4.96;100.00;101008.88;5039894;28;20061;-75
2022/12/30 04:43:57;;;;;;;25.73;4.28;;;;;;;4.94;100.00;101015.47;5039505;28;20145;-75
2022/12/30 04:46:22;;;;;;;20.08;4.07;;;;;;;5.03;100.00;101014.56;5035380;28;20029;-75
2022/12/30 04:48:47;;;;;;;22.33;4.25;;;;;;;5.01;100.00;101008.41;5036768;28;20028;-76
2022/12/30 04:51:13;;;;;;;22.55;4.57;;;;;;;4.89;100.00;101007.81;5041919;28;20026;-75
2022/12/30 04:53:38;;;;;;;20.00;4.95;;;;;;;4.86;100.00;100999.16;5034373;28;20079;-74
2022/12/30 04:56:04;;;;;;;26.90;5.00;;;;;;;4.84;100.00;100998.44;5035343;28;20052;-76
2022/12/30 04:58:29;;;;;;;23.98;4.50;;;;;;;4.76;100.00;101009.25;5036142;28;20400;-76
2022/12/30 05:00:55;;;;;;;18.00;3.95;;;;;;;4.62;100.00;100997.06;5035400;28;20029;-76
2022/12/30 05:03:21;;;;;;;19.33;3.58;;;;;;;4.57;100.00;101003.97;5041773;28;20124;-76
2022/12/30 05:05:47;;;;;;;19.73;5.28;;;;;;;4.64;100.00;101013.22;5035090;28;20102;-77
2022/12/30 05:08:13;;;;;;;22.33;4.05;;;;;;;4.55;100.00;101004.09;5039971;28;20045;-76
2022/12/30 05:10:39;;;;;;;23.30;4.25;;;;;;;4.51;100.00;100993.75;5039123;28;20021;-76
2022/12/30 05:13:04;;;;;;;17.20;3.90;;;;;;;4.54;100.00;100988.00;5039245;28;20025;-76
2022/12/30 05:15:30;;;;;;;18.13;3.95;;;;;;;4.57;100.00;100999.41;5038338;28;20025;-76
2022/12/30 05:17:56;;;;;;;15.65;3.92;;;;;;;4.55;100.00;100998.69;5039117;28;20151;-75
2022/12/30 05:20:22;;;;;;;15.65;5.05;;;;;;;4.45;100.00;100999.78;5018676;28;20041;-75
2022/12/30 05:22:48;;;;;;;27.60;4.45;;;;;;;4.47;100.00;101000.47;5032410;28;20041;-75
2022/12/30 05:27:58;;;;;;;19.85;4.88;;;;;;;4.55;100.00;101000.56;5041048;28;20092;-75
2022/12/30 05:30:23;;;;;;;19.00;4.18;;;;;;;4.48;100.00;100992.19;5039458;28;20440;-75
2022/12/30 05:32:49;;;;;;;19.30;4.57;;;;;;;4.49;100.00;100995.75;5034880;28;20037;-75
2022/12/30 05:35:14;;;;;;;25.98;4.00;;;;;;;4.45;100.00;100983.50;5037389;28;20155;-75
2022/12/30 05:37:40;;;;;;;19.45;4.00;;;;;;;4.53;100.00;100980.84;5042524;28;20057;-75
2022/12/30 05:40:06;;;;;;;21.95;4.55;;;;;;;4.53;100.00;100970.88;5043151;28;20051;-75
2022/12/30 05:42:32;;;;;;;14.13;2.95;;;;;;;4.49;100.00;100980.31;5040518;28;20032;-75
2022/12/30 05:44:57;;;;;;;22.00;3.92;;;;;;;4.52;100.00;100971.88;5023848;28;20127;-75
2022/12/30 05:47:23;;;;;;;21.23;4.25;;;;;;;4.42;100.00;100970.25;5039499;28;20028;-76
2022/12/30 05:49:49;;;;;;;17.80;3.97;;;;;;;4.48;100.00;100969.66;5042779;28;20031;-76
2022/12/30 05:52:15;;;;;;;23.63;4.53;;;;;;;4.37;100.00;100964.44;5031884;28;20024;-75
2022/12/30 05:54:41;;;;;;;22.95;3.50;;;;;;;4.44;100.00;100970.97;5037373;28;20045;-76
2022/12/30 05:57:07;;;;;;;21.47;3.90;;;;;;;4.47;100.00;100970.63;5039084;28;20507;-75
2022/12/30 05:59:32;;;;;;;23.13;4.60;;;;;;;4.51;100.00;100962.06;5040489;28;20020;-75
2022/12/30 06:01:57;;;;;;;15.95;5.30;;;;;;;4.47;100.00;100965.22;5039297;28;20032;-75
2022/12/30 06:04:23;;;;;;;18.27;3.97;;;;;;;4.44;100.00;100958.25;5039069;28;20036;-75
2022/12/30 06:06:48;;;;;;;28.83;4.35;;;;;;;4.41;100.00;100950.44;5039149;28;20047;-76
2022/12/30 06:09:14;;;;;;;28.60;4.72;;;;;;;4.37;100.00;100935.47;5039627;28;20766;-76
2022/12/30 06:11:39;;;;;;;24.00;3.85;;;;;;;4.44;100.00;100938.44;5040499;28;20116;-75
2022/12/30 06:14:05;;;;;;;24.75;4.07;;;;;;;4.46;100.00;100941.81;5038952;28;20025;-75
2022/12/30 06:16:30;;;;;;;21.63;3.53;;;;;;;4.56;100.00;100935.31;5035321;28;20044;-75
2022/12/30 06:18:56;;;;;;;21.30;5.15;;;;;;;4.45;100.00;100930.16;5039356;28;20422;-75
2022/12/30 06:21:22;;;;;;;30.63;3.72;;;;;;;4.43;100.00;100934.84;5034370;28;20029;-74
2022/12/30 06:23:48;;;;;;;17.80;4.00;;;;;;;4.53;100.00;100923.91;5041276;28;20029;-75
2022/12/30 06:26:13;;;;;;;23.27;4.88;;;;;;;4.52;100.00;100914.06;5039527;28;20079;-75
2022/12/30 06:28:39;;;;;;;17.48;3.97;;;;;;;4.50;100.00;100906.09;5025816;28;20059;-75
2022/12/30 06:31:04;;;;;;;19.35;3.95;;;;;;;4.61;100.00;100902.28;5031845;28;20037;-75
2022/12/30 06:33:29;;;;;;;20.95;3.47;;;;;;;4.55;100.00;100902.94;5040558;28;20508;-76
2022/12/30 06:35:55;;;;;;;17.65;5.88;;;;;;;4.58;100.00;100918.88;5035943;28;20107;-75
2022/12/30 06:38:22;;;;;;;23.20;4.13;;;;;;;4.58;100.00;100908.00;5038493;28;20112;-75
2022/12/30 06:40:48;;;;;;;30.30;4.30;;;;;;;4.65;100.00;100903.69;5020285;28;20049;-75
2022/12/30 06:43:14;;;;;;;24.23;3.83;;;;;;;4.72;100.00;100894.75;5035907;28;20033;-75
2022/12/30 06:45:39;;;;;;;18.63;4.43;;;;;;;4.69;100.00;100888.78;5032411;28;20560;-76
2022/12/30 06:48:05;;;;;;;25.75;4.60;;;;;;;4.64;100.00;100875.69;5041379;28;20033;-75
2022/12/30 06:50:31;;;;;;;21.90;4.63;;;;;;;4.66;100.00;100881.81;5035437;28;20484;-75
2022/12/30 06:52:57;;;;;;;27.02;4.60;;;;;;;4.64;100.00;100869.44;5038500;28;20029;-75
2022/12/30 06:55:23;;;;;;;26.73;4.13;;;;;;;4.62;100.00;100866.88;5043876;28;20487;-75
2022/12/30 06:57:48;;;;;;;21.50;4.07;;;;;;;4.62;100.00;100863.31;5031892;28;20037;-75
2022/12/30 07:00:14;;;;;;;13.45;4.38;;;;;;;4.67;100.00;100860.97;5039815;28;20036;-75
2022/12/30 07:02:40;;;;;;;25.23;4.63;;;;;;;4.66;100.00;100861.97;5032757;28;20025;-75
2022/12/30 07:05:06;;;;;;;17.23;3.50;;;;;;;4.66;100.00;100851.97;5035877;28;20032;-75
2022/12/30 07:07:32;;;;;;;17.65;3.15;;;;;;;4.62;100.00;100849.75;5023762;28;20033;-75
2022/12/30 07:09:58;;;;;;;23.52;4.00;;;;;;;4.69;100.00;100856.22;5034798;28;20059;-75
2022/12/30 07:12:24;;;;;;;27.83;5.10;;;;;;;4.65;100.00;100835.88;5037146;28;20498;-75
2022/12/30 07:14:50;;;;;;;26.15;5.10;;;;;;;4.67;100.00;100847.41;5038364;28;20037;-75
2022/12/30 07:17:15;;;;;;;27.52;5.03;;;;;;;4.68;100.00;100835.53;5040025;28;20409;-75
2022/12/30 07:19:41;;;;;;;20.02;4.32;;;;;;;4.66;100.00;100832.13;5037344;28;20088;-75
2022/12/30 07:22:06;;;;;;;24.77;4.05;;;;;;;4.74;100.00;100826.75;5037533;28;20025;-75
2022/12/30 07:24:32;;;;;;;24.85;4.95;;;;;;;4.78;100.00;100820.00;5040268;28;20385;-76
2022/12/30 07:26:57;;;;;;;23.90;5.50;;;;;;;4.76;100.00;100813.91;5042181;28;20065;-75
2022/12/30 07:29:23;;;;;;;16.52;4.40;;;;;;;4.73;100.00;100809.63;5039971;28;20028;-75
2022/12/30 07:31:48;;;;;;;20.45;4.40;;;;;;;4.78;100.00;100818.16;5041579;28;20025;-75
2022/12/30 07:34:14;;;;;;;13.63;4.10;;;;;;;4.81;100.00;100806.97;5041324;28;20029;-75
2022/12/30 07:36:40;;;;;;;18.77;4.50;;;;;;;4.88;100.00;100807.16;5042305;28;20464;-75
2022/12/30 07:39:06;;;;;;;14.30;4.05;;;;;;;4.89;100.00;100803.44;5036820;28;20033;-75
2022/12/30 07:41:33;;;;;;;24.45;4.88;;;;;;;4.93;100.00;100805.69;5046199;28;20120;-75
2022/12/30 07:43:58;;;;;;;18.40;3.47;;;;;;;4.88;100.00;100793.59;5038441;28;20513;-75
2022/12/30 07:46:24;;;;;;;20.35;4.80;;;;;;;5.01;100.00;100794.00;5042479;28;20030;-74
2022/12/30 07:48:50;;;;;;;23.08;4.72;;;;;;;5.06;100.00;100797.06;5036801;28;20033;-75
2022/12/30 07:51:17;;;;;;;25.25;5.50;;;;;;;5.08;100.00;100797.78;5019140;28;20053;-75
2022/12/30 07:53:43;;;;;;;19.67;4.85;;;;;;;5.06;100.00;100789.78;5033834;28;20441;-75
2022/12/30 07:56:11;;;;;;;18.77;4.85;;;;;;;5.03;100.00;100789.25;5040555;28;20129;-75
2022/12/30 07:58:36;;;;;;;16.85;4.30;;;;;;;5.07;100.00;100786.06;5020870;28;20041;-75
2022/12/30 08:01:08;;;;;;;16.90;4.47;;;;;;;5.07;100.00;100783.34;5039358;28;20378;-75
2022/12/30 08:03:34;;;;;;;21.50;4.53;;;;;;;5.07;100.00;100783.34;5036107;28;20109;-76
2022/12/30 08:06:04;;;;;;;13.35;4.75;;;;;;;5.18;100.00;100766.75;5039976;28;20090;-74
2022/12/30 08:08:30;;;;;;;24.27;5.28;;;;;;;5.20;100.00;100770.16;5034561;28;20022;-75
2022/12/30 08:10:57;;;;;;;16.35;4.20;;;;;;;5.26;100.00;100758.66;5038067;28;20396;-74
2022/12/30 08:13:22;;;;;;;;;;;;;;;5.23;100.00;100753.53;5042074;28;20079;-75
2022/12/30 08:15:48;;;;;;;24.02;4.55;;;;;;;5.24;100.00;100744.34;5036973;28;19928;-75
2022/12/30 08:18:13;;;;;;;13.40;3.85;;;;;;;5.23;100.00;100741.84;5032230;28;20395;-75
2022/12/30 08:20:39;;;;;;;18.00;4.32;;;;;;;5.30;100.00;100735.53;5054136;28;20025;-75
2022/12/30 08:23:04;;;;;;;20.45;3.72;;;;;;;5.32;100.00;100741.69;5035360;28;20028;-75
2022/12/30 08:25:29;;;;;;;15.95;4.22;;;;;;;5.42;100.00;100731.53;5038633;28;20462;-75
2022/12/30 08:27:55;;;;;;;10.35;3.50;;;;;;;5.50;100.00;100744.25;5028825;28;20091;-74
2022/12/30 08:30:20;;;;;;;13.77;3.92;;;;;;;5.53;100.00;100736.63;5032061;28;20076;-75
2022/12/30 08:32:46;;;;;;;19.95;3.88;;;;;;;5.61;100.00;100736.63;5034254;28;20043;-75
2022/12/30 08:35:11;;;;;;;12.80;4.32;;;;;;;5.64;100.00;100730.88;5030331;28;20111;-75
2022/12/30 08:37:36;;;;;;;17.73;4.63;;;;;;;5.67;100.00;100743.25;5037040;28;20040;-75
2022/12/30 08:40:03;;;;;;;17.08;3.90;;;;;;;5.66;100.00;100736.97;5000965;28;1148344;-75
2022/12/30 08:42:28;;;;;;;10.70;3.70;;;;;;;5.69;100.00;100727.63;5028717;28;20073;-75
2022/12/30 08:44:53;;;;;;;17.50;4.05;;;;;;;5.78;100.00;100722.03;5036972;28;20064;-75
2022/12/30 08:47:19;;;;;;;18.58;4.07;;;;;;;5.78;100.00;100726.63;5036135;28;20033;-75
2022/12/30 08:49:44;;;;;;;10.50;3.63;;;;;;;5.82;100.00;100723.41;5036177;28;20044;-75
2022/12/30 08:52:10;;;;;;;21.83;5.88;;;;;;;5.83;100.00;100718.84;5040440;28;20029;-75
2022/12/30 08:54:36;;;;;;;7.03;3.25;;;;;;;5.85;100.00;100712.22;5037284;28;20070;-76
2022/12/30 08:57:02;;;;;;;11.38;3.80;;;;;;;5.88;100.00;100705.59;5038824;28;20480;-75
2022/12/30 08:59:27;;;;;;;12.07;3.47;;;;;;;5.91;100.00;100697.09;5018851;28;20416;-75
2022/12/30 09:01:53;;;;;;;14.00;3.97;;;;;;;5.90;100.00;100690.81;5037207;28;20393;-75
2022/12/30 09:04:18;;;;;;;12.05;2.97;;;;;;;5.91;100.00;100694.38;5029804;28;20173;-74
2022/12/30 09:06:44;;;;;;;11.70;3.30;;;;;;;5.99;100.00;100691.66;5035206;28;20428;-75
2022/12/30 09:09:13;;;;;;;9.15;3.42;;;;;;;6.04;100.00;100675.69;5040497;28;20028;-75
2022/12/30 09:11:40;;;;;;;14.38;4.43;;;;;;;5.97;100.00;100674.66;5035960;28;20032;-74
2022/12/30 09:14:07;;;;;;;19.70;4.90;;;;;;;6.03;100.00;100682.97;5037633;28;20034;-75
2022/12/30 09:16:33;;;;;;;;;;;;;;;6.01;100.00;100681.44;5037036;28;20390;-75
2022/12/30 09:18:58;;;;;;;9.65;3.38;;;;;;;6.16;100.00;100677.88;5037049;28;20156;-75
2022/12/30 09:21:25;;;;;;;13.43;4.13;;;;;;;6.10;100.00;100666.81;5038980;28;20731;-75
2022/12/30 09:23:50;;;;;;;14.68;3.10;;;;;;;6.10;100.00;100662.22;5033790;28;20037;-75
2022/12/30 09:26:18;;;;;;;7.68;3.10;;;;;;;6.17;100.00;100667.81;5040680;28;20504;-75
2022/12/30 09:28:44;;;;;;;10.98;2.97;;;;;;;6.23;100.00;100658.97;5037594;28;20032;-75
2022/12/30 09:31:09;;;;;;;13.85;4.43;;;;;;;6.27;100.00;100657.59;5043004;28;20041;-74
2022/12/30 09:33:35;;;;;;;12.82;2.95;;;;;;;6.22;100.00;100640.97;5033767;28;20029;-75
2022/12/30 09:36:00;;;;;;;7.57;3.13;;;;;;;6.36;100.00;100641.06;5034739;28;20171;-75
2022/12/30 09:38:25;;;;;;;14.23;2.88;;;;;;;6.36;100.00;100629.38;5034895;28;20051;-76
2022/12/30 09:41:00;;;;;;;7.43;2.53;;;;;;;6.35;100.00;100630.38;5034255;28;20145;-76
2022/12/30 09:43:25;;;;;;;8.20;2.70;;;;;;;6.43;100.00;100606.72;5035200;28;20763;-75
2022/12/30 09:46:09;;;;;;;11.48;2.88;;;;;;;6.45;100.00;100611.97;5034180;28;20069;-75
2022/12/30 09:48:44;;;;;;;5.88;2.40;;;;;;;6.49;100.00;100607.88;5033478;28;21623;-75
2022/12/30 09:51:25;;;;;;;9.60;2.85;;;;;;;6.52;100.00;100602.09;5039601;28;20021;-75
2022/12/30 09:53:56;;;;;;;5.32;2.65;;;;;;;6.54;100.00;100592.72;5041511;28;20067;-74
2022/12/30 09:56:27;;;;;;;7.25;2.63;;;;;;;6.61;100.00;100585.53;5041633;28;20087;-74
2022/12/30 09:58:54;;;;;;;8.85;2.72;;;;;;;6.66;100.00;100590.44;5035527;28;20061;-73
2022/12/30 10:01:29;;;;;;;13.23;3.28;;;;;;;6.68;100.00;100572.91;5034120;28;20021;-74
2022/12/30 10:03:57;;;;;;;6.05;2.20;;;;;;;6.75;100.00;100570.31;5037741;28;20037;-74
2022/12/30 10:06:28;;;;;;;7.50;2.65;;;;;;;6.80;100.00;100565.19;5038828;28;20116;-74
2022/12/30 10:09:06;;;;;;;6.70;3.13;;;;;;;6.79;100.00;100572.50;5039886;28;20120;-73
2022/12/30 10:11:45;;;;;;;6.80;2.53;;;;;;;6.84;100.00;100548.31;5038520;28;20432;-74
2022/12/30 10:14:29;;;;;;;9.05;2.70;;;;;;;6.82;100.00;100534.03;5038057;28;20518;-73
2022/12/30 10:17:19;;;;;;;6.38;2.70;;;;;;;6.88;100.00;100540.66;5032718;28;20030;-74
2022/12/30 10:19:50;;;;;;;10.73;2.90;;;;;;;6.88;100.00;100527.03;5043842;28;20052;-74
2022/12/30 10:22:24;;;;;;;11.43;2.08;;;;;;;6.93;100.00;100520.00;5040379;28;20441;-74
2022/12/30 10:25:20;;;;;;;12.13;2.58;;;;;;;6.95;100.00;100517.09;5036968;28;20040;-74
2022/12/30 10:27:48;;;;;;;8.55;2.05;;;;;;;6.94;100.00;100504.53;5036782;28;20047;-74
2022/12/30 10:30:19;;;;;;;12.57;3.17;;;;;;;6.92;100.00;100493.81;5037950;28;20498;-74
2022/12/30 10:32:52;;;;;;;6.97;2.70;;;;;;;7.01;100.00;100489.13;5038104;28;20025;-75
2022/12/30 10:35:23;;;;;;;6.68;2.38;;;;;;;6.99;100.00;100488.50;5038074;28;20075;-74
2022/12/30 10:37:54;;;;;;;10.38;2.28;;;;;;;7.00;100.00;100468.41;5035042;28;20029;-74
2022/12/30 10:40:23;;;;;;;9.35;2.03;;;;;;;7.00;100.00;100457.50;5030782;28;20045;-74
2022/12/30 10:42:51;;;;;;;6.88;2.13;;;;;;;7.08;100.00;100457.41;5040255;28;20040;-74
2022/12/30 10:45:34;;;;;;;14.32;2.85;;;;;;;7.06;100.00;100434.97;5034392;28;20040;-74
2022/12/30 10:48:36;;;;;;;7.07;2.13;;;;;;;7.07;100.00;100423.06;5034416;28;20384;-74
2022/12/30 10:51:02;;;;;;;7.72;2.60;;;;;;;7.05;100.00;100416.94;5036847;28;20029;-73
2022/12/30 10:53:29;;;;;;;14.20;2.25;;;;;;;7.12;100.00;100407.00;5039035;28;20478;-74
2022/12/30 10:55:56;;;;;;;17.92;2.97;;;;;;;7.14;100.00;100405.78;5033415;28;20051;-74
2022/12/30 10:58:26;;;;;;;13.10;2.20;;;;;;;7.20;100.00;100385.97;5039215;28;20026;-73
2022/12/30 11:00:52;;;;;;;8.70;2.10;;;;;;;7.14;100.00;100374.97;5032593;28;20064;-74
2022/12/30 11:03:30;;;;;;;12.38;1.80;;;;;;;7.28;100.00;100366.81;5032009;28;20033;-73
2022/12/30 11:06:14;;;;;;;7.93;1.80;;;;;;;7.30;100.00;100363.88;5038649;28;20033;-74
2022/12/30 11:08:40;;;;;;;11.35;2.35;;;;;;;7.32;100.00;100340.06;5035720;28;20021;-74
2022/12/30 11:11:06;;;;;;;8.45;2.45;;;;;;;7.27;100.00;100337.03;5038392;28;20091;-74
2022/12/30 11:16:32;;;;;;;9.85;1.90;;;;;;;7.31;100.00;100316.56;5036691;28;20160;-74
2022/12/30 11:19:03;;;;;;;10.95;2.30;;;;;;;7.34;100.00;100316.19;5032879;28;20041;-74
2022/12/30 11:21:31;;;;;;;9.38;2.03;;;;;;;7.41;100.00;100295.31;5032670;28;20036;-74
2022/12/30 11:23:59;;;;;;;13.13;2.55;;;;;;;7.39;100.00;100298.25;5038917;28;20036;-74
2022/12/30 11:26:30;;;;;;;5.80;2.45;;;;;;;7.41;100.00;100287.13;5051525;28;20025;-74
2022/12/30 11:29:08;;;;;;;7.90;2.13;;;;;;;7.48;100.00;100274.47;5031057;28;20029;-75
2022/12/30 11:31:41;;;;;;;9.70;2.20;;;;;;;7.51;100.00;100266.72;5036502;28;20059;-75
2022/12/30 11:34:17;;;;;;;12.45;2.72;;;;;;;7.57;100.00;100256.94;5033091;28;20030;-74
2022/12/30 11:36:43;;;;;;;9.52;2.85;;;;;;;7.59;100.00;100252.16;5034790;28;20178;-75
2022/12/30 11:39:25;;;;;;;12.27;2.75;;;;;;;7.74;99.68;100237.41;5033696;28;20017;-75
2022/12/30 11:41:53;;;;;;;9.18;2.40;;;;;;;7.72;99.88;100227.75;5034627;28;20025;-75
2022/12/30 11:44:27;;;;;;;5.60;2.15;;;;;;;7.70;100.00;100208.03;5034571;28;21658;-75
2022/12/30 11:46:55;;;;;;;11.32;2.90;;;;;;;7.69;100.00;100228.16;5033736;28;20112;-75
2022/12/30 11:49:32;;;;;;;10.13;2.78;;;;;;;7.73;100.00;100196.72;5043777;28;20037;-75
2022/12/30 11:52:10;;;;;;;12.32;3.22;;;;;;;7.75;100.00;100183.75;5037109;28;20029;-74
2022/12/30 11:55:04;;;;;;;7.95;2.03;;;;;;;7.74;100.00;100163.81;5040042;28;20029;-74
2022/12/30 11:57:36;;;;;;;12.02;2.42;;;;;;;7.75;100.00;100148.31;5039066;28;20111;-75
2022/12/30 12:00:34;;;;;;;11.95;2.42;;;;;;;7.78;100.00;100146.03;5031266;28;20025;-74
2022/12/30 12:03:05;;;;;;;10.82;2.15;;;;;;;7.77;100.00;100138.06;5034237;28;20038;-74
2022/12/30 12:05:42;;;;;;;15.75;2.45;;;;;;;7.80;100.00;100135.78;5034364;28;20124;-73
2022/12/30 12:08:25;;;;;;;8.68;1.83;;;;;;;7.79;100.00;100125.91;5031115;28;20029;-73
2022/12/30 12:10:55;;;;;;;14.52;2.85;;;;;;;7.84;100.00;100112.53;5031952;28;20037;-74
2022/12/30 12:13:33;;;;;;;12.88;2.75;;;;;;;7.81;100.00;100106.63;5037088;28;20025;-74
2022/12/30 12:16:00;;;;;;;10.25;1.85;;;;;;;7.81;100.00;100102.03;5040485;28;20021;-74
2022/12/30 12:18:37;;;;;;;13.07;2.38;;;;;;;7.81;100.00;100084.84;5041095;28;20036;-75
2022/12/30 12:21:25;;;;;;;17.45;2.45;;;;;;;7.80;100.00;100088.59;5036972;28;20112;-74